Gaithersburg, Maryland
Current Conditions -  °F | °C
As of 7:15 PM on Wednesday 22 Oct 2014 (Local Time) from KGAI Reporting Station
Broken Clouds Broken Clouds  
Wind Chill: 54°   Ceiling: 3600
Heat Index: 54°   Visibility: 10mi
Dew Point: 46°   Wind: 6mph
Humidity: 77%   Direction: 310°NW
Pressure: 29.98"   Gusts: NA
Location:  39.14°N, 77.19°W
Report Text: KGAI 222315Z 31005KT 10SM BKN036 BKN060 12/08 A2998 RMK AO1
Loading
Personal Weather Stations






























Interactive Weather Map
Tropical Storm Tracking
New forecast layout! Learn more

10-Day Weather Forecast

Advertisements
Track Severe Weather on mobile